createdAt,value
2022-11-20T00:04:25.552Z,101353.91
2022-11-20T00:09:28.062Z,101356.19
2022-11-20T00:14:30.528Z,101354.00
2022-11-20T00:19:33.060Z,101361.72
2022-11-20T00:24:38.949Z,101354.34
2022-11-20T00:29:45.285Z,101352.25
2022-11-20T00:34:47.877Z,101349.72
2022-11-20T00:39:50.376Z,101354.34
2022-11-20T00:44:52.938Z,101361.75
2022-11-20T00:49:55.547Z,101359.22
2022-11-20T00:54:58.080Z,101346.66
2022-11-20T01:00:00.555Z,101362.28
2022-11-20T01:05:03.528Z,101370.94
2022-11-20T01:10:06.875Z,101375.63
2022-11-20T01:15:09.926Z,101377.31
2022-11-20T01:20:12.619Z,101391.28
2022-11-20T01:25:15.216Z,101405.44
2022-11-20T01:30:17.725Z,101404.81
2022-11-20T01:35:20.221Z,101404.75
2022-11-20T01:40:22.635Z,101409.53
2022-11-20T01:46:12.829Z,101423.59
2022-11-20T01:51:35.412Z,101426.13
2022-11-20T01:56:42.982Z,101418.75
2022-11-20T02:01:45.941Z,101447.94
2022-11-20T02:07:00.336Z,101458.72
2022-11-20T02:12:04.471Z,101459.34
2022-11-20T02:17:06.961Z,101474.78
2022-11-20T02:22:37.186Z,101490.66
2022-11-20T02:27:39.830Z,101509.25
2022-11-20T02:32:42.347Z,101518.13
2022-11-20T02:37:46.136Z,101517.50
2022-11-20T02:42:48.777Z,101538.09
2022-11-20T02:47:51.894Z,101562.69
2022-11-20T02:52:54.370Z,101554.66
2022-11-20T02:57:57.179Z,101551.34
2022-11-20T03:02:59.637Z,101557.75
2022-11-20T03:08:02.050Z,101556.88
2022-11-20T03:13:04.590Z,101572.50
2022-11-20T03:18:07.225Z,101577.13
2022-11-20T03:23:09.828Z,101562.31
2022-11-20T03:28:12.393Z,101563.75
2022-11-20T03:33:14.885Z,101593.50
2022-11-20T03:38:17.317Z,101609.66
2022-11-20T03:43:19.776Z,101615.94
2022-11-20T03:48:23.263Z,101632.38
2022-11-20T03:53:27.108Z,101637.66
2022-11-20T03:58:29.543Z,101643.47
2022-11-20T04:03:32.040Z,101657.66
2022-11-20T04:08:34.678Z,101660.16
2022-11-20T04:13:38.403Z,101694.25
2022-11-20T04:18:41.011Z,101684.91
2022-11-20T04:23:43.576Z,101684.00
2022-11-20T04:28:46.312Z,101683.41
2022-11-20T04:33:48.852Z,101702.19
2022-11-20T04:38:57.275Z,101702.03
2022-11-20T04:44:04.470Z,101730.56
2022-11-20T04:49:08.110Z,101752.84
2022-11-20T04:54:12.848Z,101759.78
2022-11-20T04:59:15.564Z,101762.00
2022-11-20T05:04:18.117Z,101775.75
2022-11-20T05:09:20.850Z,101783.75
2022-11-20T05:14:23.682Z,101809.03
2022-11-20T05:19:26.335Z,101812.31
2022-11-20T05:24:28.864Z,101836.47
2022-11-20T05:29:31.347Z,101831.25
2022-11-20T05:34:34.055Z,101838.56
2022-11-20T05:39:36.665Z,101836.28
2022-11-20T05:44:39.128Z,101828.34
2022-11-20T05:49:41.551Z,101855.66
2022-11-20T05:54:43.974Z,101866.50
2022-11-20T05:59:46.487Z,101880.81
2022-11-20T06:04:49.022Z,101889.59
2022-11-20T06:09:51.524Z,101884.56
2022-11-20T06:14:54.068Z,101891.50
2022-11-20T06:19:56.528Z,101910.25
2022-11-20T06:24:58.993Z,101907.13
2022-11-20T06:30:01.459Z,101905.06
2022-11-20T06:35:06.306Z,101928.41
2022-11-20T06:40:09.903Z,101939.19
2022-11-20T06:45:12.550Z,101941.47
2022-11-20T06:50:15.107Z,101936.03
2022-11-20T06:55:17.689Z,101943.75
2022-11-20T07:00:20.217Z,101959.88
2022-11-20T07:05:22.676Z,101974.56
2022-11-20T07:10:26.070Z,101977.78
2022-11-20T07:15:28.657Z,102004.16
2022-11-20T07:20:31.158Z,101985.66
2022-11-20T07:25:34.268Z,101977.56
2022-11-20T07:30:36.749Z,101974.78
2022-11-20T07:35:39.767Z,101978.13
2022-11-20T07:40:42.325Z,101982.09
2022-11-20T07:45:44.812Z,101997.47
2022-11-20T07:50:47.412Z,101989.19
2022-11-20T07:55:50.270Z,101988.31
2022-11-20T08:00:52.784Z,102013.66
2022-11-20T08:05:55.263Z,102037.19
2022-11-20T08:11:19.391Z,102040.31
2022-11-20T08:16:23.017Z,102042.81
2022-11-20T08:21:25.528Z,102082.97
2022-11-20T08:26:28.760Z,102074.91
2022-11-20T08:31:32.061Z,102088.47
2022-11-20T08:36:36.276Z,102092.38
2022-11-20T08:41:38.739Z,102094.38
2022-11-20T08:46:42.949Z,102100.63
2022-11-20T08:51:46.329Z,102078.06
2022-11-20T08:56:49.283Z,102089.00
2022-11-20T09:01:51.802Z,102094.63
2022-11-20T09:06:54.428Z,102096.91
2022-11-20T09:11:56.880Z,102096.31
2022-11-20T09:16:59.495Z,102101.06
2022-11-20T09:22:02.271Z,102104.09
2022-11-20T09:27:13.138Z,102105.41
2022-11-20T09:32:15.584Z,102118.63
2022-11-20T09:37:18.124Z,102109.97
2022-11-20T09:42:29.386Z,102107.41
2022-11-20T09:47:56.136Z,102089.47
2022-11-20T09:53:12.593Z,102105.25
2022-11-20T09:58:40.884Z,102115.41
2022-11-20T10:04:06.015Z,102107.13
2022-11-20T10:09:14.216Z,102115.53
2022-11-20T10:14:31.561Z,102116.31
2022-11-20T10:19:49.769Z,102121.50
2022-11-20T10:25:10.851Z,102126.16
2022-11-20T10:30:19.123Z,102099.81
2022-11-20T10:35:54.357Z,102124.75
2022-11-20T10:41:21.202Z,102111.66
2022-11-20T10:46:25.060Z,102089.31
2022-11-20T10:51:32.939Z,102109.97
2022-11-20T10:56:50.301Z,102108.91
2022-11-20T11:01:52.936Z,102117.88
2022-11-20T11:07:04.317Z,102117.53
2022-11-20T11:12:11.021Z,102092.81
2022-11-20T11:17:41.567Z,102071.13
2022-11-20T11:22:50.305Z,102066.69
2022-11-20T11:27:54.356Z,102065.00
2022-11-20T11:33:07.995Z,102092.75
2022-11-20T11:38:18.479Z,102096.66
2022-11-20T11:43:46.068Z,102083.94
2022-11-20T11:49:03.178Z,102087.50
2022-11-20T11:54:21.591Z,102082.44
2022-11-20T11:59:48.061Z,102095.38
2022-11-20T12:04:58.968Z,102092.75
2022-11-20T12:10:03.357Z,102112.94
2022-11-20T12:15:12.382Z,102110.31
2022-11-20T12:20:15.641Z,102086.28
2022-11-20T12:25:29.877Z,102076.13
2022-11-20T12:30:36.667Z,102073.19
2022-11-20T12:35:39.155Z,102073.91
2022-11-20T12:40:56.789Z,102098.28
2022-11-20T12:46:18.574Z,102130.13
2022-11-20T12:51:44.960Z,102141.44
2022-11-20T12:57:15.076Z,102153.47
2022-11-20T13:02:38.938Z,102121.19
2022-11-20T13:07:43.368Z,102115.50
2022-11-20T13:12:50.333Z,102133.94
2022-11-20T13:17:59.091Z,102149.19
2022-11-20T13:23:01.603Z,102165.13
2022-11-20T13:28:23.969Z,102179.81
2022-11-20T13:33:38.266Z,102170.56
2022-11-20T13:38:54.913Z,102178.75
2022-11-20T13:44:30.247Z,102179.22
2022-11-20T13:49:44.835Z,102163.66
2022-11-20T13:55:20.795Z,102136.03
2022-11-20T14:00:26.448Z,102116.53
2022-11-20T14:05:32.410Z,102133.38
2022-11-20T14:10:34.972Z,102136.22
2022-11-20T14:15:43.287Z,102114.56
2022-11-20T14:20:47.876Z,102132.81
2022-11-20T14:25:50.435Z,102151.16
2022-11-20T14:30:53.975Z,102141.22
2022-11-20T14:35:59.917Z,102142.53
2022-11-20T14:41:20.255Z,102132.34
2022-11-20T14:46:23.658Z,102112.50
2022-11-20T14:51:42.447Z,102121.41
2022-11-20T14:57:03.120Z,102092.97
2022-11-20T15:02:10.546Z,102103.06
2022-11-20T15:07:13.099Z,102113.28
2022-11-20T15:12:19.473Z,102140.91
2022-11-20T15:17:21.948Z,102112.91
2022-11-20T15:22:24.435Z,102113.19
2022-11-20T15:27:26.928Z,102102.16
2022-11-20T15:32:29.414Z,102127.28
2022-11-20T15:37:54.763Z,102113.25
2022-11-20T15:43:13.064Z,102117.16
2022-11-20T15:48:20.761Z,102117.13
2022-11-20T15:53:23.265Z,102106.94
2022-11-20T15:58:25.809Z,102111.13
2022-11-20T16:03:28.723Z,102135.59
2022-11-20T16:08:31.195Z,102121.47
2022-11-20T16:13:52.323Z,102117.22
2022-11-20T16:18:54.806Z,102127.19
2022-11-20T16:24:05.819Z,102132.81
2022-11-20T16:29:08.783Z,102125.31
2022-11-20T16:34:23.575Z,102125.97
2022-11-20T16:39:26.618Z,102116.00
2022-11-20T16:44:29.318Z,102114.34
2022-11-20T16:49:33.524Z,102122.78
2022-11-20T16:54:35.984Z,102115.94
2022-11-20T16:59:38.550Z,102123.69
2022-11-20T17:04:41.882Z,102127.28
2022-11-20T17:09:44.456Z,102136.47
2022-11-20T17:14:47.006Z,102130.25
2022-11-20T17:19:52.521Z,102131.69
2022-11-20T17:24:54.927Z,102137.25
2022-11-20T17:29:59.502Z,102134.47
2022-11-20T17:35:02.088Z,102124.94
2022-11-20T17:40:06.245Z,102125.84
2022-11-20T17:45:08.886Z,102121.09
2022-11-20T17:50:11.422Z,102131.34
2022-11-20T17:55:13.997Z,102126.09
2022-11-20T18:00:17.988Z,102118.50
2022-11-20T18:05:20.786Z,102132.84
2022-11-20T18:10:23.345Z,102127.97
2022-11-20T18:15:26.344Z,102136.88
2022-11-20T18:20:32.029Z,102127.00
2022-11-20T18:25:36.627Z,102132.25
2022-11-20T18:30:39.108Z,102126.81
2022-11-20T18:35:43.320Z,102127.94
2022-11-20T18:40:45.835Z,102128.72
2022-11-20T18:45:48.334Z,102137.72
2022-11-20T18:50:50.827Z,102137.59
2022-11-20T18:55:53.347Z,102139.91
2022-11-20T19:00:55.892Z,102134.34
2022-11-20T19:05:58.439Z,102129.63
2022-11-20T19:11:08.840Z,102129.97
2022-11-20T19:16:17.068Z,102106.38
2022-11-20T19:21:22.607Z,102098.97
2022-11-20T19:26:26.044Z,102088.13
2022-11-20T19:31:29.279Z,102093.25
2022-11-20T19:36:34.756Z,102094.13
2022-11-20T19:41:39.159Z,102094.53
2022-11-20T19:46:42.808Z,102085.19
2022-11-20T19:51:48.273Z,102096.63
2022-11-20T19:56:50.983Z,102091.91
2022-11-20T20:01:53.524Z,102073.09
2022-11-20T20:06:56.469Z,102066.78
2022-11-20T20:11:58.961Z,102076.88
2022-11-20T20:17:01.496Z,102082.56
2022-11-20T20:22:03.978Z,102062.47
2022-11-20T20:27:06.496Z,102046.47
2022-11-20T20:32:09.158Z,102066.44
2022-11-20T20:37:11.632Z,102093.38
2022-11-20T20:42:14.235Z,102101.91
2022-11-20T20:47:16.677Z,102102.41
2022-11-20T20:52:19.302Z,102111.88
2022-11-20T20:57:23.121Z,102086.38
2022-11-20T21:02:26.194Z,102112.19
2022-11-20T21:07:28.757Z,102128.09
2022-11-20T21:12:31.300Z,102097.53
2022-11-20T21:17:33.770Z,102091.34
2022-11-20T21:22:36.639Z,102100.53
2022-11-20T21:27:39.157Z,102095.56
2022-11-20T21:32:41.689Z,102090.31
2022-11-20T21:37:44.116Z,102080.97
2022-11-20T21:42:46.648Z,102079.50
2022-11-20T21:47:50.809Z,102065.34
2022-11-20T21:52:53.437Z,102053.41
2022-11-20T21:57:55.915Z,102045.94
2022-11-20T22:02:58.482Z,102047.13
2022-11-20T22:08:01.777Z,102057.50
2022-11-20T22:13:22.813Z,102020.09
2022-11-20T22:18:25.298Z,102003.66
2022-11-20T22:23:27.795Z,102004.78
2022-11-20T22:28:30.419Z,101986.78
2022-11-20T22:33:33.707Z,101971.41
2022-11-20T22:38:39.529Z,101980.97
2022-11-20T22:43:43.483Z,101989.41
2022-11-20T22:48:57.095Z,101993.00
2022-11-20T22:54:00.542Z,101959.72
2022-11-20T22:59:03.398Z,101933.00
2022-11-20T23:04:10.029Z,101911.41
2022-11-20T23:09:13.205Z,101922.84
2022-11-20T23:14:16.514Z,101941.44
2022-11-20T23:19:19.490Z,101918.88
2022-11-20T23:24:22.043Z,101914.22
2022-11-20T23:29:24.595Z,101921.56
2022-11-20T23:34:27.288Z,101910.75
2022-11-20T23:39:29.970Z,101930.59
2022-11-20T23:44:32.470Z,101910.66
2022-11-20T23:49:34.973Z,101885.03
2022-11-20T23:54:37.536Z,101873.78
2022-11-20T23:59:40.069Z,101884.38
